Flight Track Log - Related Links

Times and Time Zones

All times are in EDT time to prevent confusion due to time zone crossing. See the DKT111 flight status page for this flight to view local times or setup timezone preferences in your user account.

Time Position Orientation Groundspeed Altitude Reporting Facility
EDT Latitude Longitude Course Direction KTS MPH feet Rate Location/Type
Tue 08:18:06 AM 43.6022 -96.8975 278° West 135 155 3,700  Level Minneapolis Center
Tue 08:19:08 AM 43.6097 -96.9519 281° West 140 161 4,500 683 Climbing Minneapolis Center
Tue 08:20:09 AM 43.6147 -97.0053 277° West 141 162 5,100 634 Climbing Minneapolis Center
Tue 08:21:11 AM 43.6203 -97.0608 278° West 143 165 5,800 581 Climbing Minneapolis Center
Tue 08:22:00 AM 43.6198 -97.1204 278° West  Level Estimated
Tue 08:22:13 AM 43.6253 -97.1175 277° West 146 168 6,300  Level Minneapolis Center
Tue 08:23:00 AM 43.6260 -97.1835 278° West  Level Estimated
Tue 08:23:14 AM 43.6297 -97.1719 276° West 145 167 6,900  Level Minneapolis Center
Tue 08:24:16 AM 43.6353 -97.2378 277° West 144 166 7,600 532 Climbing Minneapolis Center
Tue 08:25:18 AM 43.6406 -97.2936 277° West 146 168 8,000 195 Climbing Minneapolis Center
Tue 08:26:19 AM 43.6444 -97.3542 275° West 150 173 8,000  Level Minneapolis Center
Tue 08:27:21 AM 43.6492 -97.4194 276° West 159 183 8,000  Level Minneapolis Center
Tue 08:28:23 AM 43.6542 -97.4864 276° West 167 192 8,000  Level Minneapolis Center
Tue 08:29:24 AM 43.6611 -97.5525 278° West 171 197 8,000  Level Minneapolis Center
Tue 08:30:26 AM 43.6672 -97.6167 278° West 171 197 8,000  Level Minneapolis Center
Tue 08:31:28 AM 43.6772 -97.6833 282° West 173 199 8,000  Level Minneapolis Center
Tue 08:32:29 AM 43.6889 -97.7636 281° West 176 203 8,000  Level Minneapolis Center
Tue 08:33:31 AM 43.6950 -97.8278 278° West 173 199 8,000  Level Minneapolis Center
Tue 08:34:33 AM 43.7008 -97.8942 277° West 174 200 8,000  Level Minneapolis Center
Tue 08:35:35 AM 43.7064 -97.9606 277° West 174 200 8,000  Level Minneapolis Center
Tue 08:36:36 AM 43.7131 -98.0275 278° West 176 203 8,000  Level Minneapolis Center
Tue 08:37:38 AM 43.7208 -98.0939 279° West 175 201 8,000  Level Minneapolis Center
Tue 08:38:40 AM 43.7278 -98.1617 278° West 177 204 8,000  Level Minneapolis Center
Tue 08:39:42 AM 43.7344 -98.2325 277° West 175 201 8,000  Level Minneapolis Center
Tue 08:40:43 AM 43.7417 -98.2986 279° West 174 200 8,000  Level Minneapolis Center
Tue 08:41:45 AM 43.7481 -98.3669 277° West 176 203 8,000  Level Minneapolis Center
Tue 08:42:47 AM 43.7569 -98.4478 279° West 177 204 8,000  Level Minneapolis Center
Tue 08:43:49 AM 43.7644 -98.5144 279° West 177 204 8,000  Level Minneapolis Center
Tue 08:44:50 AM 43.7697 -98.5758 277° West 176 203 8,000  Level Minneapolis Center
Tue 08:45:52 AM 43.7747 -98.6436 276° West 177 204 8,000  Level Minneapolis Center
Tue 08:46:54 AM 43.7756 -98.7172 271° West 176 203 8,000  Level Minneapolis Center
Tue 08:47:55 AM 43.7772 -98.7850 272° West 176 203 8,000  Level Minneapolis Center
Tue 08:48:57 AM 43.7836 -98.8531 277° West 177 204 8,000  Level Minneapolis Center
Tue 08:49:59 AM 43.7864 -98.9322 273° West 175 201 8,000 49 Level Minneapolis Center
Tue 08:51:00 AM 43.7919 -98.9975 277° West 173 199 8,100 -49 Climbing Minneapolis Center
Tue 08:52:02 AM 43.7997 -99.0650 279° West 175 201 7,900 -48 Descending Minneapolis Center
Tue 08:53:04 AM 43.8053 -99.1322 277° West 176 203 8,000 49 Climbing Minneapolis Center
Tue 08:54:05 AM 43.8106 -99.2006 276° West 177 204 8,000  Level Minneapolis Center
Tue 08:55:19 AM 43.8167 -99.2831 276° West 178 205 8,000  Level Minneapolis Center
Tue 08:56:20 AM 43.8200 -99.3519 274° West 179 206 8,000  Level Minneapolis Center
Tue 08:57:22 AM 43.8225 -99.4183 273° West 177 204 8,000  Level Minneapolis Center
Tue 08:58:24 AM 43.8278 -99.4842 276° West 175 201 8,000  Level Minneapolis Center
Tue 08:59:25 AM 43.8342 -99.5653 276° West 175 201 8,000  Level Minneapolis Center
Tue 09:00:27 AM 43.8400 -99.6328 277° West 176 203 8,000  Level Minneapolis Center
Tue 09:01:28 AM 43.8450 -99.7003 276° West 176 203 8,000  Level Minneapolis Center
Tue 09:02:29 AM 43.8525 -99.7678 279° West 176 203 8,000  Level Minneapolis Center
Tue 09:03:31 AM 43.8583 -99.8353 277° West 177 204 8,000  Level Minneapolis Center
Tue 09:04:32 AM 43.8650 -99.9028 278° West 177 204 8,000  Level Minneapolis Center
Tue 09:05:34 AM 43.8706 -99.9708 276° West 177 204 8,000  Level Minneapolis Center
Tue 09:06:35 AM 43.8756 -100.0397 276° West 178 205 8,000  Level Minneapolis Center
Tue 09:07:37 AM 43.8792 -100.1083 274° West 178 205 8,000  Level Minneapolis Center
Tue 09:08:38 AM 43.8856 -100.1897 276° West 178 205 8,000  Level Minneapolis Center
Tue 09:09:40 AM 43.8897 -100.2594 275° West 178 205 8,000  Level Minneapolis Center
Tue 09:10:41 AM 43.8944 -100.3283 275° West 179 206 8,000  Level Minneapolis Center
Tue 09:11:43 AM 43.8983 -100.3981 274° West 180 207 8,000  Level Minneapolis Center
Tue 09:12:44 AM 43.9017 -100.4675 274° West 180 207 8,000  Level Minneapolis Center
Tue 09:13:46 AM 43.9083 -100.5383 277° West 182 209 8,000  Level Minneapolis Center
Tue 09:14:47 AM 43.9144 -100.6072 277° West 182 209 8,000  Level Minneapolis Center
Tue 09:15:49 AM 43.9192 -100.6753 276° West 181 208 8,000  Level Minneapolis Center
Tue 09:17:02 AM 43.9247 -100.7442 276° West 179 206 8,000  Level Minneapolis Center
Tue 09:18:04 AM 43.9336 -100.8425 277° West 181 208 8,000  Level Minneapolis Center
Tue 09:19:06 AM 43.9386 -100.9128 276° West 183 211 8,000  Level Minneapolis Center
Tue 09:20:07 AM 43.9442 -100.9831 276° West 183 211 8,000  Level Minneapolis Center
Tue 09:21:09 AM 43.9472 -101.0525 274° West 183 211 8,000  Level Minneapolis Center
Tue 09:22:10 AM 43.9511 -101.1242 274° West 183 211 8,000  Level Minneapolis Center
Tue 09:23:12 AM 43.9558 -101.1944 275° West 184 212 8,000  Level Minneapolis Center
Tue 09:24:14 AM 43.9592 -101.2628 274° West 182 209 8,000  Level Minneapolis Center
Tue 09:25:15 AM 43.9622 -101.3364 273° West 181 208 8,000  Level Minneapolis Center
Tue 09:26:11 AM 43.9617 -101.4064 269° West 184 212 8,000  Level Denver Center
Tue 09:27:12 AM 43.9642 -101.4556 274° West 181 208 8,000  Level Denver Center
Tue 09:28:13 AM 43.9658 -101.5267 272° West 181 208 8,000  Level Denver Center
Tue 09:29:14 AM 43.9681 -101.5947 273° West 180 207 8,000  Level Denver Center
Tue 09:30:15 AM 43.9733 -101.6797 275° West 181 208 8,000  Level Denver Center
Tue 09:31:16 AM 43.9775 -101.7494 275° West 181 208 8,000  Level Denver Center
Tue 09:32:17 AM 43.9819 -101.8183 275° West 180 207 8,000  Level Denver Center
Tue 09:32:33 AM 43.9886 -101.8483 287° West 181 208 8,000  Level Denver Center
Tue 09:33:18 AM 43.9875 -101.9028 268° West 181 208 8,000  Level Denver Center
Tue 09:33:34 AM 43.9928 -101.9150 301° West 179 206 8,000  Level Denver Center
Tue 09:34:19 AM 43.9917 -101.9628 268° West 181 208 8,000  Level Denver Center
Tue 09:34:34 AM 43.9958 -101.9881 283° West 179 206 8,000  Level Denver Center
Tue 09:35:35 AM 43.9986 -102.0608 273° West 179 206 8,000  Level Denver Center
Tue 09:36:36 AM 44.0028 -102.1275 275° West 182 209 8,000  Level Denver Center
Tue 09:37:36 AM 44.0097 -102.1994 278° West 182 209 8,000  Level Denver Center
Tue 09:38:37 AM 44.0117 -102.2667 272° West 182 209 8,000  Level Denver Center
Tue 09:39:24 AM 44.0150 -102.3203 275° West 155 178 8,000  Level Denver Center
Tue 09:40:25 AM 44.0203 -102.3925 276° West 185 213 8,000 -49 Level Denver Center
Tue 09:41:26 AM 44.0256 -102.4606 276° West 180 207 7,900 -195 Descending Denver Center
Tue 09:42:28 AM 44.0314 -102.5328 276° West 183 211 7,600 -146 Descending Denver Center
Tue 09:43:29 AM 43.9514 -102.6389 224° Southwest 244 281 7,600 -591 Level Denver Center
Tue 09:44:40 AM 44.0514 -102.7097 333° Northwest 199 229 6,300 -864 Descending Denver Center
Tue 09:45:41 AM 44.0583 -102.7844 277° West 200 230 5,700 -590 Descending Denver Center
Tue 09:46:42 AM 44.0656 -102.8619 277° West 194 223 5,100 -545 Descending Denver Center
Tue 09:47:42 AM 44.0711 -102.9281 277° West 186 214 4,600 -446 Descending Denver Center
Tue 09:48:43 AM 44.0792 -102.9967 279° West 171 197 4,200 -397 Descending Denver Center
Tue 09:49:43 AM 44.0781 -103.0472 268° West 140 161 3,800 -400 Descending Denver Center
Tue 09:51:00 AM 44.0453 -103.0574 270° West  Level Estimated
Tue 09:58:00 AM 44.0453 -103.0574 270° West  Level Estimated
Tue 09:59:00 AM 44.0453 -103.0574 270° West  Level Estimated

Login

Don't have an account? Register now (free) for customized features, flight alerts, and more!